Lommel, Belgium
Current Conditions -  °F | °C
As of 1:55 AM on Tuesday 27 Jan 2015 (Local Time) from EBBL Reporting Station
Scattered Clouds Scattered Clouds  
Wind Chill: 34°   Ceiling: Unl
Heat Index: 37°   Visibility: 6mi
Dew Point: 34°   Wind: 5mph
Humidity: 87%   Direction: 270°W
Pressure: 30.18"   Gusts: NA
Location:  51.23°N, 5.31°E
Report Text: EBBL 270055Z 27004KT 9999 SCT040 SCT220 03/01 Q1022 BLU
Loading
Personal Weather Stations






























Interactive Weather Map New forecast layout! Learn more

10-Day Weather Forecast

Advertisements
Track Severe Weather on mobile